createdAt,value
2023-05-03T00:01:29.401Z,13.10
2023-05-03T00:03:56.578Z,12.70
2023-05-03T00:06:23.697Z,13.10
2023-05-03T00:08:51.228Z,13.10
2023-05-03T00:11:18.098Z,13.20
2023-05-03T00:13:44.971Z,13.50
2023-05-03T00:16:12.311Z,14.30
2023-05-03T00:18:39.276Z,14.00
2023-05-03T00:21:06.243Z,13.80
2023-05-03T00:23:33.248Z,13.90
2023-05-03T00:26:03.330Z,14.40
2023-05-03T00:28:30.303Z,14.00
2023-05-03T00:30:57.282Z,14.20
2023-05-03T00:33:24.257Z,14.50
2023-05-03T00:35:51.237Z,15.90
2023-05-03T00:38:18.197Z,16.80
2023-05-03T00:40:45.147Z,18.30
2023-05-03T00:43:13.530Z,19.90
2023-05-03T00:45:40.734Z,19.90
2023-05-03T00:48:07.776Z,19.90
2023-05-03T00:50:37.279Z,18.60
2023-05-03T00:53:04.905Z,20.00
2023-05-03T00:55:33.197Z,19.90
2023-05-03T00:58:00.098Z,19.80
2023-05-03T01:00:27.327Z,19.90
2023-05-03T01:02:54.536Z,19.90
2023-05-03T01:05:22.960Z,20.00
2023-05-03T01:08:01.828Z,19.00
2023-05-03T01:10:46.964Z,19.80
2023-05-03T01:13:34.870Z,21.20
2023-05-03T01:16:24.369Z,21.20
2023-05-03T01:18:54.981Z,22.80
2023-05-03T01:21:22.810Z,21.30
2023-05-03T01:24:13.560Z,21.70
2023-05-03T01:26:40.677Z,22.80
2023-05-03T01:29:07.621Z,22.00
2023-05-03T01:31:55.824Z,22.30
2023-05-03T01:34:42.798Z,22.00
2023-05-03T01:37:13.147Z,21.40
2023-05-03T01:40:01.477Z,20.70
2023-05-03T01:42:29.941Z,23.30
2023-05-03T01:44:57.460Z,22.60
2023-05-03T01:47:24.367Z,23.10
2023-05-03T01:49:51.530Z,22.00
2023-05-03T01:52:18.455Z,22.20
2023-05-03T01:54:45.678Z,22.90
2023-05-03T01:57:12.506Z,21.80
2023-05-03T01:59:39.372Z,21.70
2023-05-03T02:02:06.294Z,22.40
2023-05-03T02:04:33.232Z,21.70
2023-05-03T02:07:00.219Z,21.80
2023-05-03T02:09:27.211Z,21.90
2023-05-03T02:11:54.091Z,21.50
2023-05-03T02:14:21.251Z,21.60
2023-05-03T02:16:48.590Z,21.80
2023-05-03T02:19:16.047Z,21.80
2023-05-03T02:21:42.923Z,23.30
2023-05-03T02:24:09.814Z,24.40
2023-05-03T02:26:36.708Z,25.20
2023-05-03T02:29:03.914Z,25.70
2023-05-03T02:31:30.950Z,25.70
2023-05-03T02:33:58.004Z,25.70
2023-05-03T02:36:24.963Z,25.10
2023-05-03T02:38:51.956Z,25.10
2023-05-03T02:41:18.836Z,24.90
2023-05-03T02:43:45.788Z,25.30
2023-05-03T02:46:12.776Z,24.60
2023-05-03T02:48:39.796Z,24.90
2023-05-03T02:51:06.841Z,24.60
2023-05-03T02:53:33.784Z,24.80
2023-05-03T02:56:00.686Z,24.80
2023-05-03T02:58:27.700Z,25.70
2023-05-03T03:00:54.647Z,25.40
2023-05-03T03:03:21.694Z,25.40
2023-05-03T03:05:48.731Z,26.70
2023-05-03T03:08:15.789Z,28.00
2023-05-03T03:10:42.750Z,30.00
2023-05-03T03:13:09.841Z,30.90
2023-05-03T03:15:36.801Z,32.40
2023-05-03T03:18:03.840Z,32.00
2023-05-03T03:20:30.832Z,32.00
2023-05-03T03:22:57.837Z,32.80
2023-05-03T03:25:24.870Z,32.10
2023-05-03T03:27:51.853Z,30.80
2023-05-03T03:30:18.992Z,33.80
2023-05-03T03:32:45.957Z,33.20
2023-05-03T03:35:14.294Z,31.90
2023-05-03T03:37:41.332Z,31.20
2023-05-03T03:40:08.983Z,31.00
2023-05-03T03:42:36.185Z,30.00
2023-05-03T03:45:04.692Z,31.30
2023-05-03T03:47:31.644Z,33.50
2023-05-03T03:50:02.627Z,33.50
2023-05-03T03:52:29.997Z,33.20
2023-05-03T03:54:57.026Z,36.50
2023-05-03T03:57:26.099Z,38.00
2023-05-03T03:59:52.984Z,36.00
2023-05-03T04:02:19.980Z,35.60
2023-05-03T04:04:46.895Z,38.00
2023-05-03T04:07:14.113Z,38.10
2023-05-03T04:09:41.065Z,39.50
2023-05-03T04:12:08.444Z,39.10
2023-05-03T04:14:35.592Z,36.60
2023-05-03T04:17:03.292Z,36.20
2023-05-03T04:19:30.541Z,35.30
2023-05-03T04:21:57.486Z,35.20
2023-05-03T04:24:24.457Z,36.50
2023-05-03T04:26:51.647Z,37.70
2023-05-03T04:29:20.013Z,38.20
2023-05-03T04:31:47.002Z,38.80
2023-05-03T04:34:15.961Z,41.10
2023-05-03T04:36:43.022Z,41.70
2023-05-03T04:39:12.011Z,47.10
2023-05-03T04:41:40.594Z,46.40
2023-05-03T04:44:07.523Z,48.70
2023-05-03T04:46:34.553Z,48.50
2023-05-03T04:49:02.035Z,46.70
2023-05-03T04:51:29.402Z,46.60
2023-05-03T04:53:56.540Z,44.80
2023-05-03T04:56:26.395Z,44.40
2023-05-03T04:58:54.007Z,44.40
2023-05-03T05:01:26.416Z,40.50
2023-05-03T05:03:54.140Z,38.80
2023-05-03T05:06:21.102Z,42.30
2023-05-03T05:08:48.174Z,41.30
2023-05-03T05:11:15.743Z,41.80
2023-05-03T05:13:42.856Z,44.60
2023-05-03T05:16:09.900Z,44.50
2023-05-03T05:18:36.856Z,46.70
2023-05-03T05:21:04.139Z,50.70
2023-05-03T05:23:31.323Z,47.80
2023-05-03T05:26:00.589Z,50.10
2023-05-03T05:28:28.537Z,55.40
2023-05-03T05:30:55.409Z,56.50
2023-05-03T05:33:22.833Z,59.30
2023-05-03T05:35:50.060Z,59.60
2023-05-03T05:38:18.307Z,60.50
2023-05-03T05:40:45.824Z,59.50
2023-05-03T05:43:13.047Z,60.90
2023-05-03T05:45:40.067Z,62.00
2023-05-03T05:48:08.304Z,59.00
2023-05-03T05:50:36.680Z,57.30
2023-05-03T05:53:03.771Z,57.30
2023-05-03T05:55:30.968Z,54.60
2023-05-03T05:57:58.076Z,57.10
2023-05-03T06:00:25.316Z,58.40
2023-05-03T06:02:52.594Z,61.10
2023-05-03T06:05:20.276Z,62.40
2023-05-03T06:07:47.961Z,62.80
2023-05-03T06:10:14.942Z,63.80
2023-05-03T06:12:42.036Z,62.20
2023-05-03T06:15:09.766Z,63.70
2023-05-03T06:17:36.902Z,63.40
2023-05-03T06:20:04.916Z,62.10
2023-05-03T06:22:33.150Z,59.80
2023-05-03T06:25:00.635Z,61.00
2023-05-03T06:27:46.278Z,60.00
2023-05-03T06:30:13.972Z,58.50
2023-05-03T06:32:42.105Z,59.20
2023-05-03T06:35:09.817Z,61.40
2023-05-03T06:37:36.894Z,61.40
2023-05-03T06:40:05.466Z,60.70
2023-05-03T06:42:32.857Z,59.80
2023-05-03T06:45:00.031Z,59.50
2023-05-03T06:47:27.085Z,59.20
2023-05-03T06:49:54.070Z,58.70
2023-05-03T06:52:20.998Z,60.50
2023-05-03T06:54:48.112Z,58.30
2023-05-03T06:57:15.093Z,57.90
2023-05-03T06:59:42.163Z,59.50
2023-05-03T07:02:09.448Z,58.20
2023-05-03T07:04:37.883Z,57.80
2023-05-03T07:07:05.624Z,58.80
2023-05-03T07:09:42.713Z,58.60
2023-05-03T07:12:11.143Z,57.10
2023-05-03T07:14:39.789Z,55.20
2023-05-03T07:17:07.250Z,53.60
2023-05-03T07:19:34.356Z,53.10
2023-05-03T07:22:03.359Z,53.00
2023-05-03T07:24:30.564Z,53.20
2023-05-03T07:26:58.381Z,53.60
2023-05-03T07:29:26.278Z,54.20
2023-05-03T07:31:53.776Z,52.70
2023-05-03T07:34:21.499Z,51.80
2023-05-03T07:36:48.609Z,51.60
2023-05-03T07:39:15.898Z,50.40
2023-05-03T07:41:42.836Z,49.10
2023-05-03T07:44:09.789Z,48.50
2023-05-03T07:46:36.973Z,50.20
2023-05-03T07:49:05.716Z,50.40
2023-05-03T07:51:39.734Z,49.90
2023-05-03T07:54:07.839Z,49.70
2023-05-03T07:56:34.998Z,51.90
2023-05-03T08:01:31.728Z,50.40
2023-05-03T08:03:59.003Z,49.80
2023-05-03T08:06:26.436Z,49.40
2023-05-03T08:08:53.572Z,48.30
2023-05-03T08:11:21.050Z,48.00
2023-05-03T08:13:49.131Z,48.10
2023-05-03T08:16:16.637Z,49.60
2023-05-03T08:18:43.656Z,48.50
2023-05-03T08:21:12.230Z,47.60
2023-05-03T08:23:39.504Z,46.00
2023-05-03T08:26:07.870Z,46.30
2023-05-03T08:28:35.294Z,46.20
2023-05-03T08:31:05.026Z,46.10
2023-05-03T08:33:32.147Z,47.50
2023-05-03T08:35:59.339Z,46.30
2023-05-03T08:38:26.481Z,46.20
2023-05-03T08:40:55.734Z,46.00
2023-05-03T08:43:27.240Z,46.00
2023-05-03T08:45:54.282Z,46.10
2023-05-03T08:48:21.930Z,46.40
2023-05-03T08:50:51.656Z,46.50
2023-05-03T08:53:18.844Z,46.70
2023-05-03T08:55:45.934Z,45.00
2023-05-03T08:58:13.654Z,40.60
2023-05-03T09:00:44.850Z,34.90
2023-05-03T09:03:12.726Z,33.40
2023-05-03T09:05:41.419Z,34.10
2023-05-03T09:08:13.115Z,35.40
2023-05-03T09:10:42.054Z,36.00
2023-05-03T09:13:10.241Z,37.60
2023-05-03T09:15:37.494Z,35.60
2023-05-03T09:18:19.624Z,34.20
2023-05-03T09:20:52.872Z,32.00
2023-05-03T09:23:31.972Z,33.20
2023-05-03T09:26:00.413Z,35.90
2023-05-03T09:28:27.732Z,35.00
2023-05-03T09:31:07.822Z,34.60
2023-05-03T09:33:35.058Z,33.50
2023-05-03T09:36:06.102Z,30.90
2023-05-03T09:38:34.936Z,29.10
2023-05-03T09:41:02.770Z,29.30
2023-05-03T09:43:29.736Z,27.00
2023-05-03T09:46:09.718Z,25.40
2023-05-03T09:48:40.576Z,25.20
2023-05-03T09:51:09.078Z,24.10
2023-05-03T09:53:37.436Z,23.80
2023-05-03T09:56:08.994Z,18.80
2023-05-03T09:58:36.730Z,19.50
2023-05-03T10:01:04.112Z,22.00
2023-05-03T10:03:44.111Z,21.50
2023-05-03T10:06:31.955Z,22.00
2023-05-03T10:08:59.225Z,20.60
2023-05-03T10:11:27.406Z,20.40
2023-05-03T10:13:55.994Z,20.60
2023-05-03T10:16:32.762Z,18.60
2023-05-03T10:19:19.528Z,20.10
2023-05-03T10:22:08.271Z,17.40
2023-05-03T10:24:37.027Z,16.70
2023-05-03T10:27:08.565Z,15.80
2023-05-03T10:29:46.022Z,16.60
2023-05-03T10:32:33.081Z,16.50
2023-05-03T10:35:07.173Z,13.40
2023-05-03T10:37:36.263Z,15.30
2023-05-03T10:40:11.545Z,14.40
2023-05-03T10:42:40.178Z,13.70
2023-05-03T10:45:09.008Z,12.70
2023-05-03T10:47:36.317Z,11.50
2023-05-03T10:50:15.354Z,10.30
2023-05-03T10:52:42.319Z,8.20
2023-05-03T10:55:18.593Z,8.50
2023-05-03T10:57:46.888Z,7.90
2023-05-03T11:00:19.827Z,9.40
2023-05-03T11:03:21.645Z,8.00
2023-05-03T11:05:49.099Z,4.90
2023-05-03T11:08:18.560Z,7.20
2023-05-03T11:10:46.992Z,5.60
2023-05-03T11:13:14.910Z,5.30
2023-05-03T11:15:42.737Z,5.30
2023-05-03T11:18:13.902Z,6.30
2023-05-03T11:20:41.306Z,5.50
2023-05-03T11:23:08.484Z,5.40
2023-05-03T11:25:35.689Z,4.60
2023-05-03T11:28:07.190Z,5.10
2023-05-03T11:30:35.976Z,5.60
2023-05-03T11:33:03.396Z,4.60
2023-05-03T11:35:31.923Z,1.00
2023-05-03T11:37:59.018Z,1.00
2023-05-03T11:40:26.244Z,1.00
2023-05-03T11:42:53.774Z,1.00
2023-05-03T11:45:26.048Z,1.00
2023-05-03T11:47:54.100Z,1.00
2023-05-03T11:50:43.256Z,1.00
2023-05-03T11:53:11.262Z,1.00
2023-05-03T11:55:43.215Z,1.00
2023-05-03T11:58:17.865Z,1.00
2023-05-03T12:00:49.295Z,1.00
2023-05-03T12:03:27.697Z,1.00
2023-05-03T12:05:58.634Z,1.00
2023-05-03T12:08:36.522Z,1.00
2023-05-03T12:11:06.886Z,1.00
2023-05-03T12:13:38.834Z,1.00
2023-05-03T12:18:57.875Z,1.00
2023-05-03T12:23:57.326Z,1.00
2023-05-03T12:26:25.783Z,1.00
2023-05-03T12:28:55.963Z,1.00
2023-05-03T12:31:24.180Z,1.00
2023-05-03T12:36:25.673Z,1.00
2023-05-03T12:38:56.173Z,1.00
2023-05-03T12:42:04.520Z,1.00
2023-05-03T12:44:23.109Z,1.00
2023-05-03T12:46:52.987Z,1.00
2023-05-03T12:49:22.927Z,1.00
2023-05-03T12:52:05.007Z,1.00
2023-05-03T12:54:41.437Z,1.00
2023-05-03T12:57:15.323Z,1.00
2023-05-03T12:59:43.894Z,1.00
2023-05-03T13:03:20.152Z,1.00
2023-05-03T13:05:12.034Z,1.00
2023-05-03T13:07:55.684Z,1.00
2023-05-03T13:10:24.846Z,1.00
2023-05-03T13:12:53.998Z,1.00
2023-05-03T13:15:21.073Z,1.00
2023-05-03T13:17:49.606Z,1.00
2023-05-03T13:20:20.360Z,1.00
2023-05-03T13:22:49.272Z,1.00
2023-05-03T13:25:16.469Z,1.00
2023-05-03T13:27:44.176Z,1.00
2023-05-03T13:30:11.474Z,1.00
2023-05-03T13:32:38.531Z,1.00
2023-05-03T13:35:06.661Z,1.00
2023-05-03T13:37:33.836Z,1.00
2023-05-03T13:40:01.405Z,1.00
2023-05-03T13:42:28.964Z,1.00
2023-05-03T13:44:56.057Z,1.00
2023-05-03T13:47:23.265Z,1.00
2023-05-03T13:49:50.419Z,1.00
2023-05-03T13:52:17.330Z,1.00
2023-05-03T13:54:44.471Z,1.00
2023-05-03T13:57:11.488Z,1.00
2023-05-03T13:59:38.541Z,1.00
2023-05-03T14:02:05.642Z,1.00
2023-05-03T14:04:32.852Z,1.00
2023-05-03T14:07:03.366Z,1.00
2023-05-03T14:09:30.878Z,1.00
2023-05-03T14:11:58.047Z,1.00
2023-05-03T14:14:27.286Z,1.00
2023-05-03T14:16:54.387Z,1.00
2023-05-03T14:19:21.767Z,1.00
2023-05-03T14:21:51.171Z,1.00
2023-05-03T14:24:18.499Z,1.00
2023-05-03T14:26:45.575Z,1.00
2023-05-03T14:29:12.588Z,1.00
2023-05-03T14:31:39.547Z,1.00
2023-05-03T14:34:06.510Z,1.00
2023-05-03T14:36:38.532Z,1.00
2023-05-03T14:39:05.689Z,1.00
2023-05-03T14:41:34.195Z,1.00
2023-05-03T14:44:02.178Z,1.00
2023-05-03T14:46:29.373Z,1.00
2023-05-03T14:48:57.687Z,1.00
2023-05-03T14:51:24.858Z,1.00
2023-05-03T14:53:52.342Z,1.00
2023-05-03T14:56:19.347Z,1.00
2023-05-03T14:58:46.482Z,1.00
2023-05-03T15:01:20.775Z,1.00
2023-05-03T15:03:48.277Z,1.00
2023-05-03T15:06:16.723Z,1.00
2023-05-03T15:08:43.602Z,1.00
2023-05-03T15:11:10.899Z,1.00
2023-05-03T15:13:40.973Z,1.00
2023-05-03T15:16:08.027Z,1.00
2023-05-03T15:18:34.955Z,1.00
2023-05-03T15:21:02.067Z,1.00
2023-05-03T15:23:29.069Z,1.00
2023-05-03T15:25:56.202Z,1.00
2023-05-03T15:28:23.117Z,1.00
2023-05-03T15:30:50.850Z,1.00
2023-05-03T15:33:18.184Z,1.00
2023-05-03T15:35:45.324Z,1.00
2023-05-03T15:38:12.599Z,1.00
2023-05-03T15:40:40.848Z,1.00
2023-05-03T15:43:07.698Z,1.00
2023-05-03T15:45:35.427Z,1.00
2023-05-03T15:48:02.859Z,1.00
2023-05-03T15:50:30.467Z,1.00
2023-05-03T15:52:57.400Z,1.00
2023-05-03T15:55:24.488Z,1.00
2023-05-03T15:57:53.266Z,1.00
2023-05-03T16:00:21.753Z,1.00
2023-05-03T16:02:49.017Z,1.00
2023-05-03T16:05:17.739Z,1.00
2023-05-03T16:07:45.054Z,1.00
2023-05-03T16:10:12.143Z,1.00
2023-05-03T16:12:40.838Z,1.00
2023-05-03T16:15:10.827Z,1.00
2023-05-03T16:17:38.145Z,1.00
2023-05-03T16:20:06.767Z,1.00
2023-05-03T16:22:33.918Z,1.00
2023-05-03T16:25:00.902Z,1.00
2023-05-03T16:27:28.135Z,1.00
2023-05-03T16:29:55.239Z,1.00
2023-05-03T16:32:22.552Z,1.00
2023-05-03T16:34:50.514Z,1.00
2023-05-03T16:37:19.263Z,1.00
2023-05-03T16:39:46.259Z,1.00
2023-05-03T16:42:13.353Z,1.00
2023-05-03T16:44:40.274Z,1.00
2023-05-03T16:47:07.271Z,1.00
2023-05-03T16:49:34.510Z,1.00
2023-05-03T16:52:01.963Z,1.00
2023-05-03T16:54:29.162Z,1.00
2023-05-03T16:56:56.283Z,1.00
2023-05-03T16:59:23.643Z,1.00
2023-05-03T17:01:50.882Z,1.00
2023-05-03T17:04:17.827Z,1.00
2023-05-03T17:06:44.817Z,1.00
2023-05-03T17:09:13.372Z,1.00
2023-05-03T17:11:40.566Z,1.00
2023-05-03T17:14:07.476Z,1.00
2023-05-03T17:16:34.700Z,1.00
2023-05-03T17:19:01.660Z,1.00
2023-05-03T17:21:28.598Z,1.00
2023-05-03T17:23:55.794Z,1.00
2023-05-03T17:26:22.760Z,1.00
2023-05-03T17:28:49.861Z,1.00
2023-05-03T17:31:17.057Z,1.00
2023-05-03T17:33:43.984Z,1.00
2023-05-03T17:36:10.919Z,1.00
2023-05-03T17:38:38.115Z,1.00
2023-05-03T17:41:10.351Z,1.00
2023-05-03T17:43:38.571Z,1.00
2023-05-03T17:46:11.218Z,1.00
2023-05-03T17:48:43.934Z,1.00
2023-05-03T17:51:13.379Z,1.00
2023-05-03T17:53:42.614Z,1.00
2023-05-03T17:56:14.039Z,1.00
2023-05-03T17:58:41.376Z,1.00
2023-05-03T18:01:10.482Z,1.00
2023-05-03T18:03:38.057Z,1.00
2023-05-03T18:06:08.586Z,1.00
2023-05-03T18:08:35.552Z,1.00
2023-05-03T18:11:02.816Z,1.00
2023-05-03T18:13:31.792Z,1.00
2023-05-03T18:15:58.861Z,1.00
2023-05-03T18:18:28.153Z,1.00
2023-05-03T18:21:03.657Z,1.00
2023-05-03T18:23:31.897Z,1.00
2023-05-03T18:25:59.958Z,1.00
2023-05-03T18:28:27.633Z,1.00
2023-05-03T18:30:57.821Z,1.00
2023-05-03T18:33:25.252Z,1.00
2023-05-03T18:35:55.054Z,1.00
2023-05-03T18:38:22.069Z,1.00
2023-05-03T18:40:50.021Z,1.00
2023-05-03T18:43:17.249Z,1.00
2023-05-03T18:45:44.639Z,1.00
2023-05-03T18:48:11.993Z,1.00
2023-05-03T18:50:39.743Z,1.00
2023-05-03T18:53:06.800Z,1.00
2023-05-03T18:55:33.749Z,1.00
2023-05-03T18:58:01.485Z,1.00
2023-05-03T19:00:28.437Z,1.00
2023-05-03T19:02:55.352Z,1.00
2023-05-03T19:05:22.289Z,1.00
2023-05-03T19:07:49.672Z,1.00
2023-05-03T19:10:18.011Z,1.00
2023-05-03T19:12:45.058Z,1.00
2023-05-03T19:15:12.459Z,1.00
2023-05-03T19:17:42.649Z,1.00
2023-05-03T19:20:10.497Z,1.00
2023-05-03T19:22:38.009Z,1.00
2023-05-03T19:25:05.876Z,1.00
2023-05-03T19:27:34.177Z,1.00
2023-05-03T19:30:01.310Z,1.00
2023-05-03T19:32:28.552Z,1.00
2023-05-03T19:34:55.817Z,1.00
2023-05-03T19:37:22.909Z,1.00
2023-05-03T19:39:49.820Z,1.00
2023-05-03T19:42:17.414Z,1.00
2023-05-03T19:44:44.376Z,1.00
2023-05-03T19:47:11.370Z,1.00
2023-05-03T19:49:38.642Z,1.00
2023-05-03T19:52:06.105Z,1.00
2023-05-03T19:54:33.280Z,1.00
2023-05-03T19:57:06.535Z,1.00
2023-05-03T19:59:34.148Z,1.00
2023-05-03T20:02:01.311Z,1.00
2023-05-03T20:04:28.331Z,1.00
2023-05-03T20:06:55.318Z,1.00
2023-05-03T20:09:23.417Z,1.00
2023-05-03T20:11:51.569Z,1.00
2023-05-03T20:14:19.614Z,1.00
2023-05-03T20:16:46.962Z,1.00
2023-05-03T20:19:14.180Z,1.00
2023-05-03T20:21:41.364Z,1.00
2023-05-03T20:24:10.847Z,1.00
2023-05-03T20:26:38.592Z,1.00
2023-05-03T20:29:05.824Z,1.00
2023-05-03T20:31:33.098Z,1.00
2023-05-03T20:34:00.517Z,1.00
2023-05-03T20:36:28.087Z,1.00
2023-05-03T20:38:55.364Z,1.00
2023-05-03T20:41:22.923Z,1.00
2023-05-03T20:43:51.314Z,1.00
2023-05-03T20:46:18.722Z,1.00
2023-05-03T20:48:45.748Z,1.00
2023-05-03T20:51:12.981Z,1.00
2023-05-03T20:53:40.555Z,1.00
2023-05-03T20:56:07.985Z,1.00
2023-05-03T20:58:35.334Z,1.00
2023-05-03T21:01:06.562Z,1.00
2023-05-03T21:03:34.541Z,1.00
2023-05-03T21:06:01.606Z,1.00
2023-05-03T21:08:28.768Z,1.00
2023-05-03T21:10:55.828Z,1.00
2023-05-03T21:13:22.854Z,1.00
2023-05-03T21:15:50.974Z,1.00
2023-05-03T21:18:19.217Z,1.00
2023-05-03T21:20:47.234Z,1.00
2023-05-03T21:23:14.130Z,1.00
2023-05-03T21:25:41.018Z,1.00
2023-05-03T21:28:07.889Z,1.00
2023-05-03T21:30:34.877Z,1.00
2023-05-03T21:33:01.747Z,1.00
2023-05-03T21:35:28.910Z,1.00
2023-05-03T21:37:55.813Z,1.00
2023-05-03T21:40:22.898Z,1.00
2023-05-03T21:42:55.212Z,1.00
2023-05-03T21:45:23.212Z,1.00
2023-05-03T21:47:50.220Z,1.00
2023-05-03T21:50:17.334Z,1.00
2023-05-03T21:52:44.371Z,1.00
2023-05-03T21:55:12.250Z,1.00
2023-05-03T21:57:39.259Z,1.00
2023-05-03T22:00:07.545Z,1.00
2023-05-03T22:02:34.734Z,1.00
2023-05-03T22:05:01.721Z,1.00
2023-05-03T22:07:28.907Z,1.00
2023-05-03T22:09:55.745Z,1.00
2023-05-03T22:12:24.458Z,1.00
2023-05-03T22:14:52.141Z,1.00
2023-05-03T22:17:19.124Z,1.00
2023-05-03T22:19:46.176Z,1.00
2023-05-03T22:22:13.220Z,1.00
2023-05-03T22:24:40.810Z,1.00
2023-05-03T22:27:08.018Z,1.00
2023-05-03T22:29:34.906Z,1.00
2023-05-03T22:32:02.018Z,1.00
2023-05-03T22:34:29.277Z,1.00
2023-05-03T22:36:56.454Z,1.00
2023-05-03T22:39:23.579Z,1.00
2023-05-03T22:41:50.523Z,1.00
2023-05-03T22:44:17.467Z,1.00
2023-05-03T22:46:44.357Z,1.00
2023-05-03T22:49:11.321Z,1.00
2023-05-03T22:51:38.681Z,1.00
2023-05-03T22:54:05.891Z,1.00
2023-05-03T22:56:32.870Z,1.00
2023-05-03T22:58:59.860Z,1.00
2023-05-03T23:01:27.423Z,1.00
2023-05-03T23:03:54.748Z,1.00
2023-05-03T23:06:21.732Z,1.00
2023-05-03T23:08:48.915Z,1.00
2023-05-03T23:11:16.064Z,1.00
2023-05-03T23:13:43.340Z,1.00
2023-05-03T23:16:10.707Z,1.00
2023-05-03T23:18:37.913Z,1.00
2023-05-03T23:21:04.813Z,1.00
2023-05-03T23:23:31.771Z,1.00
2023-05-03T23:25:58.655Z,1.00
2023-05-03T23:28:26.013Z,1.00
2023-05-03T23:30:53.391Z,1.00
2023-05-03T23:33:20.913Z,1.00
2023-05-03T23:35:48.849Z,1.00
2023-05-03T23:38:15.969Z,1.00
2023-05-03T23:40:42.935Z,1.00
2023-05-03T23:43:09.870Z,1.30
2023-05-03T23:45:36.851Z,1.60
2023-05-03T23:48:04.014Z,1.50
2023-05-03T23:50:30.972Z,1.60
2023-05-03T23:52:58.672Z,1.90
2023-05-03T23:55:25.675Z,2.10
2023-05-03T23:57:52.569Z,2.50
